sensor_id;sensor_type;location;lat;lon;timestamp;temperature;humidity
24148;DHT22;12309;51.450;-2.624;2024-03-02T00:00:09;3.90;99.90
24148;DHT22;12309;51.450;-2.624;2024-03-02T00:02:55;3.70;99.90
24148;DHT22;12309;51.450;-2.624;2024-03-02T00:05:22;3.90;99.90
24148;DHT22;12309;51.450;-2.624;2024-03-02T00:08:00;3.90;99.90
24148;DHT22;12309;51.450;-2.624;2024-03-02T00:13:00;4.80;99.90
24148;DHT22;12309;51.450;-2.624;2024-03-02T00:15:43;3.80;99.90
24148;DHT22;12309;51.450;-2.624;2024-03-02T00:18:12;4.00;99.90
24148;DHT22;12309;51.450;-2.624;2024-03-02T00:20:39;3.90;99.90
24148;DHT22;12309;51.450;-2.624;2024-03-02T00:23:07;3.90;99.90
24148;DHT22;12309;51.450;-2.624;2024-03-02T00:25:44;3.70;99.90
24148;DHT22;12309;51.450;-2.624;2024-03-02T00:28:23;3.90;99.90
24148;DHT22;12309;51.450;-2.624;2024-03-02T00:33:34;3.80;99.90
24148;DHT22;12309;51.450;-2.624;2024-03-02T00:36:02;3.80;99.90
24148;DHT22;12309;51.450;-2.624;2024-03-02T00:38:29;3.80;99.90
24148;DHT22;12309;51.450;-2.624;2024-03-02T00:40:56;4.20;99.90
24148;DHT22;12309;51.450;-2.624;2024-03-02T00:46:06;3.70;99.90
24148;DHT22;12309;51.450;-2.624;2024-03-02T00:51:05;3.70;99.90
24148;DHT22;12309;51.450;-2.624;2024-03-02T00:53:32;3.80;99.90
24148;DHT22;12309;51.450;-2.624;2024-03-02T00:56:01;4.10;99.90
24148;DHT22;12309;51.450;-2.624;2024-03-02T00:58:27;4.10;99.90
24148;DHT22;12309;51.450;-2.624;2024-03-02T01:00:52;3.80;99.90
24148;DHT22;12309;51.450;-2.624;2024-03-02T01:03:18;4.00;99.90
24148;DHT22;12309;51.450;-2.624;2024-03-02T01:05:45;3.10;99.90
24148;DHT22;12309;51.450;-2.624;2024-03-02T01:08:10;3.80;99.90
24148;DHT22;12309;51.450;-2.624;2024-03-02T01:10:37;3.90;99.90
24148;DHT22;12309;51.450;-2.624;2024-03-02T01:13:03;4.10;99.90
24148;DHT22;12309;51.450;-2.624;2024-03-02T01:20:20;4.30;99.90
24148;DHT22;12309;51.450;-2.624;2024-03-02T01:22:47;4.00;99.90
24148;DHT22;12309;51.450;-2.624;2024-03-02T01:25:13;4.10;99.90
24148;DHT22;12309;51.450;-2.624;2024-03-02T01:27:39;4.00;99.90
24148;DHT22;12309;51.450;-2.624;2024-03-02T01:30:05;3.90;99.90
24148;DHT22;12309;51.450;-2.624;2024-03-02T01:34:57;2.80;99.90
24148;DHT22;12309;51.450;-2.624;2024-03-02T01:37:22;4.00;99.90
24148;DHT22;12309;51.450;-2.624;2024-03-02T01:39:48;4.00;99.90
24148;DHT22;12309;51.450;-2.624;2024-03-02T01:42:14;4.10;99.90
24148;DHT22;12309;51.450;-2.624;2024-03-02T01:44:40;4.10;99.90
24148;DHT22;12309;51.450;-2.624;2024-03-02T01:47:06;4.20;99.90
24148;DHT22;12309;51.450;-2.624;2024-03-02T01:49:32;3.90;99.90
24148;DHT22;12309;51.450;-2.624;2024-03-02T01:51:59;4.30;99.90
24148;DHT22;12309;51.450;-2.624;2024-03-02T02:01:43;3.90;99.90
24148;DHT22;12309;51.450;-2.624;2024-03-02T02:04:09;4.00;99.90
24148;DHT22;12309;51.450;-2.624;2024-03-02T02:09:00;4.00;99.90
24148;DHT22;12309;51.450;-2.624;2024-03-02T02:11:26;4.20;99.90
24148;DHT22;12309;51.450;-2.624;2024-03-02T02:13:52;4.10;99.90
24148;DHT22;12309;51.450;-2.624;2024-03-02T02:16:21;3.90;99.90
24148;DHT22;12309;51.450;-2.624;2024-03-02T02:18:46;4.10;99.90
24148;DHT22;12309;51.450;-2.624;2024-03-02T02:21:12;4.40;99.90
24148;DHT22;12309;51.450;-2.624;2024-03-02T02:23:38;4.10;99.90
24148;DHT22;12309;51.450;-2.624;2024-03-02T02:26:04;4.10;99.90
24148;DHT22;12309;51.450;-2.624;2024-03-02T02:28:30;4.10;99.90
24148;DHT22;12309;51.450;-2.624;2024-03-02T02:30:56;3.90;99.90
24148;DHT22;12309;51.450;-2.624;2024-03-02T02:33:25;4.20;99.90
24148;DHT22;12309;51.450;-2.624;2024-03-02T02:35:51;4.10;99.90
24148;DHT22;12309;51.450;-2.624;2024-03-02T02:40:42;4.10;99.90
24148;DHT22;12309;51.450;-2.624;2024-03-02T02:48:00;4.50;99.90
24148;DHT22;12309;51.450;-2.624;2024-03-02T02:50:27;4.00;99.90
24148;DHT22;12309;51.450;-2.624;2024-03-02T02:52:53;4.00;99.90
24148;DHT22;12309;51.450;-2.624;2024-03-02T02:55:19;4.00;99.90
24148;DHT22;12309;51.450;-2.624;2024-03-02T03:00:13;3.90;99.90
24148;DHT22;12309;51.450;-2.624;2024-03-02T03:02:41;4.20;99.90
24148;DHT22;12309;51.450;-2.624;2024-03-02T03:05:11;6.50;99.90
24148;DHT22;12309;51.450;-2.624;2024-03-02T03:07:40;4.00;99.90
24148;DHT22;12309;51.450;-2.624;2024-03-02T03:10:06;4.10;99.90
24148;DHT22;12309;51.450;-2.624;2024-03-02T03:12:33;4.20;99.90
24148;DHT22;12309;51.450;-2.624;2024-03-02T03:14:59;4.30;99.90
24148;DHT22;12309;51.450;-2.624;2024-03-02T03:17:26;4.40;99.90
24148;DHT22;12309;51.450;-2.624;2024-03-02T03:19:52;4.30;99.90
24148;DHT22;12309;51.450;-2.624;2024-03-02T03:22:18;4.20;99.90
24148;DHT22;12309;51.450;-2.624;2024-03-02T03:24:44;4.20;99.90
24148;DHT22;12309;51.450;-2.624;2024-03-02T03:27:10;4.30;99.90
24148;DHT22;12309;51.450;-2.624;2024-03-02T03:29:37;4.20;99.90
24148;DHT22;12309;51.450;-2.624;2024-03-02T03:32:03;4.30;99.90
24148;DHT22;12309;51.450;-2.624;2024-03-02T03:34:32;4.30;99.90
24148;DHT22;12309;51.450;-2.624;2024-03-02T03:36:58;4.10;99.90
24148;DHT22;12309;51.450;-2.624;2024-03-02T03:39:24;4.50;99.90
24148;DHT22;12309;51.450;-2.624;2024-03-02T03:41:49;4.40;99.90
24148;DHT22;12309;51.450;-2.624;2024-03-02T03:44:15;4.30;99.90
24148;DHT22;12309;51.450;-2.624;2024-03-02T03:46:41;4.10;99.90
24148;DHT22;12309;51.450;-2.624;2024-03-02T03:49:07;4.20;99.90
24148;DHT22;12309;51.450;-2.624;2024-03-02T03:53:59;4.40;99.90
24148;DHT22;12309;51.450;-2.624;2024-03-02T03:56:25;4.00;99.90
24148;DHT22;12309;51.450;-2.624;2024-03-02T03:58:50;4.30;99.90
24148;DHT22;12309;51.450;-2.624;2024-03-02T04:01:16;5.00;99.90
24148;DHT22;12309;51.450;-2.624;2024-03-02T04:03:42;4.30;99.90
24148;DHT22;12309;51.450;-2.624;2024-03-02T04:06:08;4.00;99.90
24148;DHT22;12309;51.450;-2.624;2024-03-02T04:08:33;4.20;99.90
24148;DHT22;12309;51.450;-2.624;2024-03-02T04:10:59;4.10;99.90
24148;DHT22;12309;51.450;-2.624;2024-03-02T04:13:25;4.20;99.90
24148;DHT22;12309;51.450;-2.624;2024-03-02T04:15:50;4.10;99.90
24148;DHT22;12309;51.450;-2.624;2024-03-02T04:20:42;3.80;99.90
24148;DHT22;12309;51.450;-2.624;2024-03-02T04:23:08;4.00;99.90
24148;DHT22;12309;51.450;-2.624;2024-03-02T04:25:33;4.00;99.90
24148;DHT22;12309;51.450;-2.624;2024-03-02T04:30:25;4.00;99.90
24148;DHT22;12309;51.450;-2.624;2024-03-02T04:32:51;4.00;99.90
24148;DHT22;12309;51.450;-2.624;2024-03-02T04:35:16;3.80;99.90
24148;DHT22;12309;51.450;-2.624;2024-03-02T04:37:42;3.60;99.90
24148;DHT22;12309;51.450;-2.624;2024-03-02T04:40:08;3.70;99.90
24148;DHT22;12309;51.450;-2.624;2024-03-02T04:42:34;3.50;99.90
24148;DHT22;12309;51.450;-2.624;2024-03-02T04:45:00;3.30;99.90
24148;DHT22;12309;51.450;-2.624;2024-03-02T04:47:26;3.60;99.90
24148;DHT22;12309;51.450;-2.624;2024-03-02T04:49:52;4.40;99.90
24148;DHT22;12309;51.450;-2.624;2024-03-02T04:52:17;3.40;99.90
24148;DHT22;12309;51.450;-2.624;2024-03-02T04:54:43;3.30;99.90
24148;DHT22;12309;51.450;-2.624;2024-03-02T04:57:27;3.10;99.90
24148;DHT22;12309;51.450;-2.624;2024-03-02T04:59:53;3.20;99.90
24148;DHT22;12309;51.450;-2.624;2024-03-02T05:02:19;3.20;99.90
24148;DHT22;12309;51.450;-2.624;2024-03-02T05:04:44;3.20;99.90
24148;DHT22;12309;51.450;-2.624;2024-03-02T05:07:10;3.10;99.90
24148;DHT22;12309;51.450;-2.624;2024-03-02T05:09:36;3.20;99.90
24148;DHT22;12309;51.450;-2.624;2024-03-02T05:12:01;2.90;99.90
24148;DHT22;12309;51.450;-2.624;2024-03-02T05:14:30;2.80;99.90
24148;DHT22;12309;51.450;-2.624;2024-03-02T05:16:55;2.80;99.90
24148;DHT22;12309;51.450;-2.624;2024-03-02T05:21:47;2.80;99.90
24148;DHT22;12309;51.450;-2.624;2024-03-02T05:26:40;2.50;99.90
24148;DHT22;12309;51.450;-2.624;2024-03-02T05:31:31;2.30;99.90
24148;DHT22;12309;51.450;-2.624;2024-03-02T05:33:57;2.50;99.90
24148;DHT22;12309;51.450;-2.624;2024-03-02T05:38:49;2.30;99.90
24148;DHT22;12309;51.450;-2.624;2024-03-02T05:41:14;2.50;99.90
24148;DHT22;12309;51.450;-2.624;2024-03-02T05:43:40;2.40;99.90
24148;DHT22;12309;51.450;-2.624;2024-03-02T05:48:32;2.40;99.90
24148;DHT22;12309;51.450;-2.624;2024-03-02T05:50:58;0.80;99.90
24148;DHT22;12309;51.450;-2.624;2024-03-02T05:53:23;2.40;99.90
24148;DHT22;12309;51.450;-2.624;2024-03-02T06:01:05;2.30;99.90
24148;DHT22;12309;51.450;-2.624;2024-03-02T06:03:31;2.40;99.90
24148;DHT22;12309;51.450;-2.624;2024-03-02T06:05:56;2.20;99.90
24148;DHT22;12309;51.450;-2.624;2024-03-02T06:08:22;2.40;99.90
24148;DHT22;12309;51.450;-2.624;2024-03-02T06:10:48;2.10;99.90
24148;DHT22;12309;51.450;-2.624;2024-03-02T06:13:13;2.10;99.90
24148;DHT22;12309;51.450;-2.624;2024-03-02T06:15:39;2.40;99.90
24148;DHT22;12309;51.450;-2.624;2024-03-02T06:20:33;2.20;99.90
24148;DHT22;12309;51.450;-2.624;2024-03-02T06:22:59;2.40;99.90
24148;DHT22;12309;51.450;-2.624;2024-03-02T06:25:24;2.30;99.90
24148;DHT22;12309;51.450;-2.624;2024-03-02T06:27:50;1.90;99.90
24148;DHT22;12309;51.450;-2.624;2024-03-02T06:30:16;2.10;99.90
24148;DHT22;12309;51.450;-2.624;2024-03-02T06:35:07;2.00;99.90
24148;DHT22;12309;51.450;-2.624;2024-03-02T06:37:36;2.10;99.90
24148;DHT22;12309;51.450;-2.624;2024-03-02T06:40:02;2.00;99.90
24148;DHT22;12309;51.450;-2.624;2024-03-02T06:42:28;1.90;99.90
24148;DHT22;12309;51.450;-2.624;2024-03-02T06:47:24;1.90;99.90
24148;DHT22;12309;51.450;-2.624;2024-03-02T06:49:50;1.80;99.90
24148;DHT22;12309;51.450;-2.624;2024-03-02T06:52:16;2.20;99.90
24148;DHT22;12309;51.450;-2.624;2024-03-02T06:54:42;2.00;99.90
24148;DHT22;12309;51.450;-2.624;2024-03-02T06:57:07;2.20;99.90
24148;DHT22;12309;51.450;-2.624;2024-03-02T06:59:33;2.10;99.90
24148;DHT22;12309;51.450;-2.624;2024-03-02T07:01:59;2.10;99.90
24148;DHT22;12309;51.450;-2.624;2024-03-02T07:06:50;1.80;99.90
24148;DHT22;12309;51.450;-2.624;2024-03-02T07:09:17;2.00;99.90
24148;DHT22;12309;51.450;-2.624;2024-03-02T07:11:42;2.00;99.90
24148;DHT22;12309;51.450;-2.624;2024-03-02T07:16:37;2.00;99.90
24148;DHT22;12309;51.450;-2.624;2024-03-02T07:19:03;2.30;99.90
24148;DHT22;12309;51.450;-2.624;2024-03-02T07:21:29;2.30;99.90
24148;DHT22;12309;51.450;-2.624;2024-03-02T07:23:55;2.50;99.90
24148;DHT22;12309;51.450;-2.624;2024-03-02T07:26:20;2.20;99.90
24148;DHT22;12309;51.450;-2.624;2024-03-02T07:28:46;2.30;99.90
24148;DHT22;12309;51.450;-2.624;2024-03-02T07:31:13;2.20;99.90
24148;DHT22;12309;51.450;-2.624;2024-03-02T07:33:39;2.40;99.90
24148;DHT22;12309;51.450;-2.624;2024-03-02T07:36:05;2.30;99.90
24148;DHT22;12309;51.450;-2.624;2024-03-02T07:38:31;2.40;99.90
24148;DHT22;12309;51.450;-2.624;2024-03-02T07:40:59;1.90;99.90
24148;DHT22;12309;51.450;-2.624;2024-03-02T07:43:25;2.50;99.90
24148;DHT22;12309;51.450;-2.624;2024-03-02T07:45:51;2.30;99.90
24148;DHT22;12309;51.450;-2.624;2024-03-02T07:48:17;2.90;99.90
24148;DHT22;12309;51.450;-2.624;2024-03-02T07:50:43;2.90;99.90
24148;DHT22;12309;51.450;-2.624;2024-03-02T07:55:34;3.00;99.90
24148;DHT22;12309;51.450;-2.624;2024-03-02T07:58:01;2.80;99.90
24148;DHT22;12309;51.450;-2.624;2024-03-02T08:00:27;3.00;99.90
24148;DHT22;12309;51.450;-2.624;2024-03-02T08:02:53;3.00;99.90
24148;DHT22;12309;51.450;-2.624;2024-03-02T08:05:20;3.00;99.90
24148;DHT22;12309;51.450;-2.624;2024-03-02T08:07:46;3.50;99.90
24148;DHT22;12309;51.450;-2.624;2024-03-02T08:10:13;3.40;99.90
24148;DHT22;12309;51.450;-2.624;2024-03-02T08:12:39;3.20;99.90
24148;DHT22;12309;51.450;-2.624;2024-03-02T08:15:05;3.20;99.90
24148;DHT22;12309;51.450;-2.624;2024-03-02T08:17:31;3.30;99.90
24148;DHT22;12309;51.450;-2.624;2024-03-02T08:19:57;3.40;99.90
24148;DHT22;12309;51.450;-2.624;2024-03-02T08:22:24;3.80;99.90
24148;DHT22;12309;51.450;-2.624;2024-03-02T08:24:53;3.60;99.90
24148;DHT22;12309;51.450;-2.624;2024-03-02T08:27:19;3.70;99.90
24148;DHT22;12309;51.450;-2.624;2024-03-02T08:29:44;3.80;99.90
24148;DHT22;12309;51.450;-2.624;2024-03-02T08:32:10;3.90;99.90
24148;DHT22;12309;51.450;-2.624;2024-03-02T08:34:36;4.00;99.90
24148;DHT22;12309;51.450;-2.624;2024-03-02T08:37:02;4.00;99.90
24148;DHT22;12309;51.450;-2.624;2024-03-02T08:39:28;4.20;99.90
24148;DHT22;12309;51.450;-2.624;2024-03-02T08:41:54;4.00;99.90
24148;DHT22;12309;51.450;-2.624;2024-03-02T08:44:20;4.20;99.90
24148;DHT22;12309;51.450;-2.624;2024-03-02T08:46:45;4.20;99.90
24148;DHT22;12309;51.450;-2.624;2024-03-02T08:49:12;4.20;99.90
24148;DHT22;12309;51.450;-2.624;2024-03-02T08:51:37;4.10;99.90
24148;DHT22;12309;51.450;-2.624;2024-03-02T08:54:03;4.00;99.90
24148;DHT22;12309;51.450;-2.624;2024-03-02T08:56:30;4.20;99.90
24148;DHT22;12309;51.450;-2.624;2024-03-02T08:58:56;4.30;99.90
24148;DHT22;12309;51.450;-2.624;2024-03-02T09:01:22;4.30;99.90
24148;DHT22;12309;51.450;-2.624;2024-03-02T09:03:48;4.30;99.90
24148;DHT22;12309;51.450;-2.624;2024-03-02T09:06:14;4.50;99.90
24148;DHT22;12309;51.450;-2.624;2024-03-02T09:08:42;4.30;99.90
24148;DHT22;12309;51.450;-2.624;2024-03-02T09:11:10;4.50;99.90
24148;DHT22;12309;51.450;-2.624;2024-03-02T09:13:39;4.30;99.90
24148;DHT22;12309;51.450;-2.624;2024-03-02T09:16:04;4.10;99.90
24148;DHT22;12309;51.450;-2.624;2024-03-02T09:18:31;4.60;99.90
24148;DHT22;12309;51.450;-2.624;2024-03-02T09:20:56;4.50;99.90
24148;DHT22;12309;51.450;-2.624;2024-03-02T09:25:48;4.10;99.90
24148;DHT22;12309;51.450;-2.624;2024-03-02T09:28:15;4.10;99.90
24148;DHT22;12309;51.450;-2.624;2024-03-02T09:30:41;4.20;99.90
24148;DHT22;12309;51.450;-2.624;2024-03-02T09:33:07;4.10;99.90
24148;DHT22;12309;51.450;-2.624;2024-03-02T09:35:32;4.20;99.90
24148;DHT22;12309;51.450;-2.624;2024-03-02T09:37:58;4.20;99.90
24148;DHT22;12309;51.450;-2.624;2024-03-02T09:40:24;4.20;99.90
24148;DHT22;12309;51.450;-2.624;2024-03-02T09:42:51;4.20;99.90
24148;DHT22;12309;51.450;-2.624;2024-03-02T09:45:25;4.20;99.90
24148;DHT22;12309;51.450;-2.624;2024-03-02T09:50:18;4.10;99.90
24148;DHT22;12309;51.450;-2.624;2024-03-02T09:52:44;4.80;99.90
24148;DHT22;12309;51.450;-2.624;2024-03-02T09:55:12;4.40;99.90
24148;DHT22;12309;51.450;-2.624;2024-03-02T09:57:39;4.40;99.90
24148;DHT22;12309;51.450;-2.624;2024-03-02T10:00:08;4.40;99.90
24148;DHT22;12309;51.450;-2.624;2024-03-02T10:02:33;4.20;99.90
24148;DHT22;12309;51.450;-2.624;2024-03-02T10:04:59;4.50;99.90
24148;DHT22;12309;51.450;-2.624;2024-03-02T10:07:25;4.70;99.90
24148;DHT22;12309;51.450;-2.624;2024-03-02T10:09:50;5.10;99.90
24148;DHT22;12309;51.450;-2.624;2024-03-02T10:12:18;5.40;99.90
24148;DHT22;12309;51.450;-2.624;2024-03-02T10:14:44;5.10;99.90
24148;DHT22;12309;51.450;-2.624;2024-03-02T10:17:11;5.00;99.90
24148;DHT22;12309;51.450;-2.624;2024-03-02T10:19:38;5.20;99.90
24148;DHT22;12309;51.450;-2.624;2024-03-02T10:22:08;5.50;99.90
24148;DHT22;12309;51.450;-2.624;2024-03-02T10:24:44;5.40;99.90
24148;DHT22;12309;51.450;-2.624;2024-03-02T10:27:17;5.50;99.90
24148;DHT22;12309;51.450;-2.624;2024-03-02T10:29:46;5.40;99.90
24148;DHT22;12309;51.450;-2.624;2024-03-02T10:32:12;5.50;99.90
24148;DHT22;12309;51.450;-2.624;2024-03-02T10:34:40;5.30;99.90
24148;DHT22;12309;51.450;-2.624;2024-03-02T10:37:06;5.50;99.90
24148;DHT22;12309;51.450;-2.624;2024-03-02T10:39:34;5.60;99.90
24148;DHT22;12309;51.450;-2.624;2024-03-02T10:42:02;5.50;99.90
24148;DHT22;12309;51.450;-2.624;2024-03-02T10:44:30;4.60;99.90
24148;DHT22;12309;51.450;-2.624;2024-03-02T10:46:56;3.90;99.90
24148;DHT22;12309;51.450;-2.624;2024-03-02T10:49:23;5.50;99.90
24148;DHT22;12309;51.450;-2.624;2024-03-02T10:51:50;5.20;99.90
24148;DHT22;12309;51.450;-2.624;2024-03-02T10:54:16;6.10;99.90
24148;DHT22;12309;51.450;-2.624;2024-03-02T10:56:44;5.10;99.90
24148;DHT22;12309;51.450;-2.624;2024-03-02T10:59:17;5.00;99.90
24148;DHT22;12309;51.450;-2.624;2024-03-02T11:01:48;5.20;99.90
24148;DHT22;12309;51.450;-2.624;2024-03-02T11:04:17;5.10;99.90
24148;DHT22;12309;51.450;-2.624;2024-03-02T11:06:49;5.00;99.90
24148;DHT22;12309;51.450;-2.624;2024-03-02T11:09:20;4.80;99.90
24148;DHT22;12309;51.450;-2.624;2024-03-02T11:11:53;4.80;99.90
24148;DHT22;12309;51.450;-2.624;2024-03-02T11:14:23;4.70;99.90
24148;DHT22;12309;51.450;-2.624;2024-03-02T11:16:50;4.90;99.90
24148;DHT22;12309;51.450;-2.624;2024-03-02T11:19:17;4.70;99.90
24148;DHT22;12309;51.450;-2.624;2024-03-02T11:21:43;4.80;99.90
24148;DHT22;12309;51.450;-2.624;2024-03-02T11:26:52;4.70;99.90
24148;DHT22;12309;51.450;-2.624;2024-03-02T11:32:03;4.50;99.90
24148;DHT22;12309;51.450;-2.624;2024-03-02T11:34:36;4.40;99.90
24148;DHT22;12309;51.450;-2.624;2024-03-02T11:37:05;4.30;99.90
24148;DHT22;12309;51.450;-2.624;2024-03-02T11:39:31;4.20;99.90
24148;DHT22;12309;51.450;-2.624;2024-03-02T11:41:57;4.10;99.90
24148;DHT22;12309;51.450;-2.624;2024-03-02T11:44:30;4.20;99.90
24148;DHT22;12309;51.450;-2.624;2024-03-02T11:47:02;4.30;99.90
24148;DHT22;12309;51.450;-2.624;2024-03-02T11:49:42;3.70;99.90
24148;DHT22;12309;51.450;-2.624;2024-03-02T11:52:10;3.90;99.90
24148;DHT22;12309;51.450;-2.624;2024-03-02T11:54:46;3.90;99.90
24148;DHT22;12309;51.450;-2.624;2024-03-02T11:57:17;4.30;99.90
24148;DHT22;12309;51.450;-2.624;2024-03-02T11:59:44;3.90;99.90
24148;DHT22;12309;51.450;-2.624;2024-03-02T12:02:19;3.60;99.90
24148;DHT22;12309;51.450;-2.624;2024-03-02T12:04:46;3.90;99.90
24148;DHT22;12309;51.450;-2.624;2024-03-02T12:07:19;3.90;99.90
24148;DHT22;12309;51.450;-2.624;2024-03-02T12:09:46;4.00;99.90
24148;DHT22;12309;51.450;-2.624;2024-03-02T12:12:12;4.00;99.90
24148;DHT22;12309;51.450;-2.624;2024-03-02T12:14:50;3.90;99.90
24148;DHT22;12309;51.450;-2.624;2024-03-02T12:17:16;4.20;99.90
24148;DHT22;12309;51.450;-2.624;2024-03-02T12:19:41;4.20;99.90
24148;DHT22;12309;51.450;-2.624;2024-03-02T12:22:07;4.20;99.90
24148;DHT22;12309;51.450;-2.624;2024-03-02T12:24:33;4.20;99.90
24148;DHT22;12309;51.450;-2.624;2024-03-02T12:26:59;4.10;99.90
24148;DHT22;12309;51.450;-2.624;2024-03-02T12:29:24;4.40;99.90
24148;DHT22;12309;51.450;-2.624;2024-03-02T12:31:51;4.20;99.90
24148;DHT22;12309;51.450;-2.624;2024-03-02T12:34:21;4.20;99.90
24148;DHT22;12309;51.450;-2.624;2024-03-02T12:36:47;4.40;99.90
24148;DHT22;12309;51.450;-2.624;2024-03-02T12:39:16;4.10;99.90
24148;DHT22;12309;51.450;-2.624;2024-03-02T12:41:42;4.00;99.90
24148;DHT22;12309;51.450;-2.624;2024-03-02T12:44:08;4.30;99.90
24148;DHT22;12309;51.450;-2.624;2024-03-02T12:46:34;4.00;99.90
24148;DHT22;12309;51.450;-2.624;2024-03-02T12:49:12;3.90;99.90
24148;DHT22;12309;51.450;-2.624;2024-03-02T12:51:39;4.00;99.90
24148;DHT22;12309;51.450;-2.624;2024-03-02T12:54:09;4.30;99.90
24148;DHT22;12309;51.450;-2.624;2024-03-02T12:56:36;4.10;99.90
24148;DHT22;12309;51.450;-2.624;2024-03-02T12:59:03;4.30;99.90
24148;DHT22;12309;51.450;-2.624;2024-03-02T13:01:29;4.20;99.90
24148;DHT22;12309;51.450;-2.624;2024-03-02T13:03:55;4.40;99.90
24148;DHT22;12309;51.450;-2.624;2024-03-02T13:06:22;4.40;99.90
24148;DHT22;12309;51.450;-2.624;2024-03-02T13:08:48;4.80;99.90
24148;DHT22;12309;51.450;-2.624;2024-03-02T13:11:16;4.60;99.90
24148;DHT22;12309;51.450;-2.624;2024-03-02T13:13:42;4.60;99.90
24148;DHT22;12309;51.450;-2.624;2024-03-02T13:16:09;4.80;99.90
24148;DHT22;12309;51.450;-2.624;2024-03-02T13:18:35;4.50;99.90
24148;DHT22;12309;51.450;-2.624;2024-03-02T13:21:01;4.50;99.90
24148;DHT22;12309;51.450;-2.624;2024-03-02T13:23:27;4.60;99.90
24148;DHT22;12309;51.450;-2.624;2024-03-02T13:25:55;4.70;99.90
24148;DHT22;12309;51.450;-2.624;2024-03-02T13:28:20;4.60;99.90
24148;DHT22;12309;51.450;-2.624;2024-03-02T13:30:46;5.00;99.90
24148;DHT22;12309;51.450;-2.624;2024-03-02T13:33:12;5.00;99.90
24148;DHT22;12309;51.450;-2.624;2024-03-02T13:35:38;5.10;99.90
24148;DHT22;12309;51.450;-2.624;2024-03-02T13:38:04;4.80;99.90
24148;DHT22;12309;51.450;-2.624;2024-03-02T13:40:29;5.10;99.90
24148;DHT22;12309;51.450;-2.624;2024-03-02T13:43:01;5.10;99.90
24148;DHT22;12309;51.450;-2.624;2024-03-02T13:45:26;5.00;99.90
24148;DHT22;12309;51.450;-2.624;2024-03-02T13:47:53;4.80;99.90
24148;DHT22;12309;51.450;-2.624;2024-03-02T13:50:19;4.90;99.90
24148;DHT22;12309;51.450;-2.624;2024-03-02T13:52:45;5.00;99.90
24148;DHT22;12309;51.450;-2.624;2024-03-02T13:55:11;5.10;99.90
24148;DHT22;12309;51.450;-2.624;2024-03-02T13:57:36;5.10;99.90
24148;DHT22;12309;51.450;-2.624;2024-03-02T14:00:02;5.40;99.90
24148;DHT22;12309;51.450;-2.624;2024-03-02T14:02:28;2.80;99.90
24148;DHT22;12309;51.450;-2.624;2024-03-02T14:04:54;6.00;99.90
24148;DHT22;12309;51.450;-2.624;2024-03-02T14:07:20;5.90;99.90
24148;DHT22;12309;51.450;-2.624;2024-03-02T14:09:46;6.10;99.90
24148;DHT22;12309;51.450;-2.624;2024-03-02T14:12:12;5.90;99.90
24148;DHT22;12309;51.450;-2.624;2024-03-02T14:14:39;5.60;99.90
24148;DHT22;12309;51.450;-2.624;2024-03-02T14:17:04;5.70;99.90
24148;DHT22;12309;51.450;-2.624;2024-03-02T14:19:31;5.60;99.90
24148;DHT22;12309;51.450;-2.624;2024-03-02T14:21:58;5.80;99.90
24148;DHT22;12309;51.450;-2.624;2024-03-02T14:24:23;5.80;99.90
24148;DHT22;12309;51.450;-2.624;2024-03-02T14:26:51;5.80;99.90
24148;DHT22;12309;51.450;-2.624;2024-03-02T14:29:18;5.70;99.90
24148;DHT22;12309;51.450;-2.624;2024-03-02T14:31:43;5.60;99.90
24148;DHT22;12309;51.450;-2.624;2024-03-02T14:34:09;5.60;99.90
24148;DHT22;12309;51.450;-2.624;2024-03-02T14:36:35;5.80;99.90
24148;DHT22;12309;51.450;-2.624;2024-03-02T14:39:01;5.80;99.90
24148;DHT22;12309;51.450;-2.624;2024-03-02T14:41:26;5.80;99.90
24148;DHT22;12309;51.450;-2.624;2024-03-02T14:43:52;6.00;99.90
24148;DHT22;12309;51.450;-2.624;2024-03-02T14:46:18;6.00;99.90
24148;DHT22;12309;51.450;-2.624;2024-03-02T14:48:45;6.20;99.90
24148;DHT22;12309;51.450;-2.624;2024-03-02T14:51:11;6.10;99.90
24148;DHT22;12309;51.450;-2.624;2024-03-02T14:53:38;6.10;99.90
24148;DHT22;12309;51.450;-2.624;2024-03-02T14:56:05;6.10;99.90
24148;DHT22;12309;51.450;-2.624;2024-03-02T15:00:56;5.80;99.90
24148;DHT22;12309;51.450;-2.624;2024-03-02T15:03:23;5.60;99.90
24148;DHT22;12309;51.450;-2.624;2024-03-02T15:05:48;5.50;99.90
24148;DHT22;12309;51.450;-2.624;2024-03-02T15:08:17;5.80;99.90
24148;DHT22;12309;51.450;-2.624;2024-03-02T15:10:42;5.90;99.90
24148;DHT22;12309;51.450;-2.624;2024-03-02T15:13:08;5.80;99.90
24148;DHT22;12309;51.450;-2.624;2024-03-02T15:15:34;5.70;99.90
24148;DHT22;12309;51.450;-2.624;2024-03-02T15:17:59;6.00;99.90
24148;DHT22;12309;51.450;-2.624;2024-03-02T15:22:51;6.20;99.90
24148;DHT22;12309;51.450;-2.624;2024-03-02T15:25:17;6.90;99.90
24148;DHT22;12309;51.450;-2.624;2024-03-02T15:27:43;6.90;99.90
24148;DHT22;12309;51.450;-2.624;2024-03-02T15:32:34;8.10;99.90
24148;DHT22;12309;51.450;-2.624;2024-03-02T15:35:02;8.90;99.90
24148;DHT22;12309;51.450;-2.624;2024-03-02T15:37:28;9.00;99.90
24148;DHT22;12309;51.450;-2.624;2024-03-02T15:39:54;8.20;99.90
24148;DHT22;12309;51.450;-2.624;2024-03-02T15:42:19;8.00;99.90
24148;DHT22;12309;51.450;-2.624;2024-03-02T15:44:48;8.00;99.90
24148;DHT22;12309;51.450;-2.624;2024-03-02T15:47:15;8.20;99.90
24148;DHT22;12309;51.450;-2.624;2024-03-02T15:49:40;8.40;99.90
24148;DHT22;12309;51.450;-2.624;2024-03-02T15:52:06;8.60;99.90
24148;DHT22;12309;51.450;-2.624;2024-03-02T15:54:32;9.80;99.90
24148;DHT22;12309;51.450;-2.624;2024-03-02T15:59:23;8.40;99.90
24148;DHT22;12309;51.450;-2.624;2024-03-02T16:01:49;8.20;99.90
24148;DHT22;12309;51.450;-2.624;2024-03-02T16:04:15;8.10;99.90
24148;DHT22;12309;51.450;-2.624;2024-03-02T16:06:41;8.00;99.90
24148;DHT22;12309;51.450;-2.624;2024-03-02T16:09:06;8.20;99.90
24148;DHT22;12309;51.450;-2.624;2024-03-02T16:11:35;8.30;99.90
24148;DHT22;12309;51.450;-2.624;2024-03-02T16:14:01;9.00;99.90
24148;DHT22;12309;51.450;-2.624;2024-03-02T16:16:27;10.60;99.90
24148;DHT22;12309;51.450;-2.624;2024-03-02T16:18:52;10.40;99.90
24148;DHT22;12309;51.450;-2.624;2024-03-02T16:21:18;10.00;99.90
24148;DHT22;12309;51.450;-2.624;2024-03-02T16:23:45;9.30;99.90
24148;DHT22;12309;51.450;-2.624;2024-03-02T16:26:11;9.50;99.90
24148;DHT22;12309;51.450;-2.624;2024-03-02T16:28:37;9.30;99.90
24148;DHT22;12309;51.450;-2.624;2024-03-02T16:31:03;8.80;99.90
24148;DHT22;12309;51.450;-2.624;2024-03-02T16:33:29;8.30;99.90
24148;DHT22;12309;51.450;-2.624;2024-03-02T16:35:55;9.50;99.90
24148;DHT22;12309;51.450;-2.624;2024-03-02T16:38:20;7.50;99.90
24148;DHT22;12309;51.450;-2.624;2024-03-02T16:40:46;7.80;99.90
24148;DHT22;12309;51.450;-2.624;2024-03-02T16:43:13;7.50;99.90
24148;DHT22;12309;51.450;-2.624;2024-03-02T16:45:39;7.50;99.90
24148;DHT22;12309;51.450;-2.624;2024-03-02T16:48:05;7.60;99.90
24148;DHT22;12309;51.450;-2.624;2024-03-02T16:50:31;7.40;99.90
24148;DHT22;12309;51.450;-2.624;2024-03-02T16:52:56;7.50;99.90
24148;DHT22;12309;51.450;-2.624;2024-03-02T16:55:23;7.50;99.90
24148;DHT22;12309;51.450;-2.624;2024-03-02T16:57:48;7.40;99.90
24148;DHT22;12309;51.450;-2.624;2024-03-02T17:00:14;7.30;99.90
24148;DHT22;12309;51.450;-2.624;2024-03-02T17:02:40;7.20;99.90